Terminal Aerodrome Forecast
Issued by NWS Cleveland, OH

Home | Current Version | Previous Version | Graphics & Text | Print | Product List | Glossary On
Versions: 1 2 3 4 5 6 7 8 9 10 11 12 13 14 15
000
FTUS41 KCLE 031122
TAFCAK
TAF
KCAK 031122Z 0312/0412 08006KT P6SM BKN250
     FM031600 10006KT P6SM BKN045 BKN120
     FM032000 05006KT P6SM VCSH BKN045 OVC250
     FM040100 04005KT P6SM VCSH OVC045
     FM040800 01003KT 5SM BR SCT045 BKN100=

USA.gov is the U.S. government's official web portal to all federal, state and local government web resources and services.